createdAt,value
2023-01-12T00:00:24.559Z,-16.92
2023-01-12T00:05:30.137Z,-17.17
2023-01-12T00:10:35.880Z,-17.76
2023-01-12T00:16:00.853Z,-17.84
2023-01-12T00:21:06.222Z,-16.96
2023-01-12T00:26:12.378Z,-16.58
2023-01-12T00:31:17.780Z,-16.51
2023-01-12T00:36:23.518Z,-16.52
2023-01-12T00:41:48.506Z,-16.42
2023-01-12T00:46:53.776Z,-16.42
2023-01-12T00:51:59.261Z,-16.29
2023-01-12T00:57:05.244Z,-16.18
2023-01-12T01:02:11.548Z,-16.45
2023-01-12T01:07:17.828Z,-16.90
2023-01-12T01:12:23.367Z,-17.19
2023-01-12T01:17:29.632Z,-17.40
2023-01-12T01:22:35.232Z,-17.14
2023-01-12T01:27:40.759Z,-16.69
2023-01-12T01:32:46.366Z,-16.35
2023-01-12T01:37:51.967Z,-16.30
2023-01-12T01:42:57.488Z,-16.20
2023-01-12T01:48:03.848Z,-16.50
2023-01-12T01:53:19.858Z,-17.09
2023-01-12T01:58:38.729Z,-17.41
2023-01-12T02:03:46.146Z,-17.16
2023-01-12T02:09:01.055Z,-16.82
2023-01-12T02:14:26.659Z,-16.30
2023-01-12T02:20:31.759Z,-15.94
2023-01-12T02:26:15.865Z,-16.08
2023-01-12T02:32:09.891Z,-15.89
2023-01-12T02:37:52.333Z,-16.15
2023-01-12T02:43:11.552Z,-16.17
2023-01-12T02:48:37.855Z,-16.73
2023-01-12T02:54:00.457Z,-16.93
2023-01-12T02:59:51.145Z,-16.99
2023-01-12T03:04:56.703Z,-16.76
2023-01-12T03:10:10.173Z,-16.33
2023-01-12T03:15:18.706Z,-16.57
2023-01-12T03:20:34.221Z,-16.89
2023-01-12T03:25:43.767Z,-17.02
2023-01-12T03:31:00.752Z,-16.53
2023-01-12T03:36:12.112Z,-16.36
2023-01-12T03:41:40.134Z,-16.77
2023-01-12T03:46:54.181Z,-16.69
2023-01-12T03:52:02.873Z,-16.65
2023-01-12T03:57:11.454Z,-16.35
2023-01-12T04:02:17.272Z,-16.36
2023-01-12T04:07:24.270Z,-16.34
2023-01-12T04:12:29.912Z,-16.05
2023-01-12T04:17:35.691Z,-15.86
2023-01-12T04:22:44.453Z,-16.19
2023-01-12T04:27:50.931Z,-16.48
2023-01-12T04:32:57.297Z,-16.31
2023-01-12T04:38:07.347Z,-16.20
2023-01-12T04:43:12.539Z,-16.13
2023-01-12T04:48:19.937Z,-16.06
2023-01-12T04:53:25.536Z,-16.08
2023-01-12T04:58:29.560Z,-15.72
2023-01-12T05:03:34.989Z,-15.24
2023-01-12T05:08:59.320Z,-15.42
2023-01-12T05:14:04.291Z,-15.88
2023-01-12T05:19:09.857Z,-15.56
2023-01-12T05:31:58.929Z,-13.88
2023-01-12T05:37:03.302Z,-13.88
2023-01-12T05:42:25.850Z,-14.11
2023-01-12T05:47:30.287Z,-14.60
2023-01-12T05:52:34.614Z,-14.49
2023-01-12T05:57:39.146Z,-13.93
2023-01-12T06:02:43.475Z,-13.36
2023-01-12T06:07:48.404Z,-13.02
2023-01-12T06:13:14.231Z,-12.96
2023-01-12T06:18:19.390Z,-12.43
2023-01-12T06:23:23.778Z,-13.14
2023-01-12T06:28:41.433Z,-13.34
2023-01-12T06:33:46.303Z,-13.54
2023-01-12T06:38:53.725Z,-13.95
2023-01-12T06:43:58.548Z,-13.57
2023-01-12T06:49:03.241Z,-13.61
2023-01-12T06:54:07.617Z,-14.06
2023-01-12T06:59:13.208Z,-13.72
2023-01-12T07:04:17.668Z,-13.72
2023-01-12T07:09:23.778Z,-13.69
2023-01-12T07:14:27.983Z,-13.63
2023-01-12T07:19:32.656Z,-13.68
2023-01-12T07:24:36.933Z,-13.17
2023-01-12T07:29:41.376Z,-13.12
2023-01-12T07:34:46.263Z,-12.80
2023-01-12T07:39:50.561Z,-12.78
2023-01-12T07:44:55.326Z,-13.07
2023-01-12T07:49:59.828Z,-12.50
2023-01-12T07:55:04.144Z,-13.41
2023-01-12T08:00:09.454Z,-13.14
2023-01-12T08:05:24.186Z,-12.67
2023-01-12T08:10:28.798Z,-12.59
2023-01-12T08:15:39.460Z,-12.69
2023-01-12T08:20:44.938Z,-12.90
2023-01-12T08:25:57.072Z,-12.49
2023-01-12T08:31:01.745Z,-12.32
2023-01-12T08:36:09.606Z,-12.21
2023-01-12T08:41:34.654Z,-11.98
2023-01-12T08:46:54.377Z,-11.56
2023-01-12T08:51:59.444Z,-11.70
2023-01-12T08:57:04.965Z,-11.69
2023-01-12T09:02:12.681Z,-11.61
2023-01-12T09:07:17.755Z,-11.48
2023-01-12T09:12:24.258Z,-11.72
2023-01-12T09:17:28.855Z,-11.50
2023-01-12T09:22:33.071Z,-11.50
2023-01-12T09:27:37.649Z,-11.46
2023-01-12T09:32:41.931Z,-11.21
2023-01-12T09:37:46.841Z,-11.35
2023-01-12T09:43:11.391Z,-10.87
2023-01-12T09:48:16.487Z,-10.70
2023-01-12T09:53:33.370Z,-10.73
2023-01-12T09:58:58.651Z,-10.45
2023-01-12T10:04:04.322Z,-10.49
2023-01-12T10:09:22.630Z,-10.64
2023-01-12T10:15:00.609Z,-10.58
2023-01-12T10:20:17.557Z,-10.66
2023-01-12T10:25:38.232Z,-10.39
2023-01-12T10:30:44.067Z,-10.46
2023-01-12T10:36:01.696Z,-10.36
2023-01-12T10:41:19.732Z,-10.26
2023-01-12T10:46:28.002Z,-10.38
2023-01-12T10:51:36.412Z,-10.07
2023-01-12T10:56:44.878Z,-10.00
2023-01-12T11:01:53.038Z,-9.88
2023-01-12T11:07:13.737Z,-9.63
2023-01-12T11:12:37.355Z,-9.88
2023-01-12T11:18:18.982Z,-9.70
2023-01-12T11:23:39.856Z,-9.58
2023-01-12T11:28:48.953Z,-9.68
2023-01-12T11:34:33.990Z,-9.89
2023-01-12T11:39:41.141Z,-9.87
2023-01-12T11:45:03.415Z,-9.81
2023-01-12T11:50:14.797Z,-9.61
2023-01-12T11:55:55.479Z,-9.74
2023-01-12T12:01:16.994Z,-9.65
2023-01-12T12:06:38.350Z,-9.97
2023-01-12T12:12:04.965Z,-9.89
2023-01-12T12:17:20.323Z,-9.87
2023-01-12T12:22:33.804Z,-9.65
2023-01-12T12:27:46.540Z,-9.83
2023-01-12T12:33:21.994Z,-9.89
2023-01-12T12:38:50.758Z,-10.24
2023-01-12T12:44:55.276Z,-10.07
2023-01-12T12:50:03.338Z,-10.03
2023-01-12T12:55:13.308Z,-10.22
2023-01-12T13:00:54.383Z,-10.17
2023-01-12T13:06:33.633Z,-10.15
2023-01-12T13:11:59.636Z,-10.16
2023-01-12T13:17:19.402Z,-10.27
2023-01-12T13:22:49.578Z,-10.20
2023-01-12T13:28:00.644Z,-10.04
2023-01-12T13:33:22.243Z,-10.24
2023-01-12T13:38:36.975Z,-10.07
2023-01-12T13:43:58.775Z,-10.13
2023-01-12T13:49:04.057Z,-10.52
2023-01-12T13:54:17.074Z,-10.77
2023-01-12T13:59:22.676Z,-10.87
2023-01-12T14:04:48.304Z,-11.18
2023-01-12T14:10:30.913Z,-11.68
2023-01-12T14:15:59.659Z,-11.91
2023-01-12T14:21:25.548Z,-11.99
2023-01-12T14:26:36.853Z,-12.06
2023-01-12T14:31:53.918Z,-12.06
2023-01-12T14:37:00.789Z,-12.01
2023-01-12T14:42:26.931Z,-12.06
2023-01-12T14:47:35.261Z,-11.81
2023-01-12T14:52:42.680Z,-11.64
2023-01-12T14:57:54.895Z,-11.44
2023-01-12T15:03:05.412Z,-11.04
2023-01-12T15:08:10.651Z,-10.42
2023-01-12T15:13:35.673Z,-10.00
2023-01-12T15:19:01.748Z,-9.98
2023-01-12T15:24:49.530Z,-9.88
2023-01-12T15:29:55.883Z,-9.90
2023-01-12T15:35:02.625Z,-9.95
2023-01-12T15:40:09.801Z,-10.51
2023-01-12T15:45:38.168Z,-10.58
2023-01-12T15:50:46.287Z,-10.49
2023-01-12T15:55:52.410Z,-10.65
2023-01-12T16:00:58.332Z,-10.57
2023-01-12T16:06:04.078Z,-10.73
2023-01-12T16:11:24.953Z,-10.98
2023-01-12T16:16:30.800Z,-11.07
2023-01-12T16:21:36.854Z,-11.03
2023-01-12T16:26:42.607Z,-11.57
2023-01-12T16:31:48.494Z,-11.19
2023-01-12T16:36:54.663Z,-11.15
2023-01-12T16:42:07.918Z,-10.98
2023-01-12T16:47:16.625Z,-10.59
2023-01-12T16:52:23.338Z,-10.84
2023-01-12T16:57:28.899Z,-10.64
2023-01-12T17:02:34.873Z,-10.52
2023-01-12T17:07:40.678Z,-10.39
2023-01-12T17:12:51.176Z,-10.78
2023-01-12T17:18:06.215Z,-11.35
2023-01-12T17:23:12.059Z,-11.59
2023-01-12T17:28:17.364Z,-11.54
2023-01-12T17:33:22.188Z,-11.69
2023-01-12T17:38:28.906Z,-11.60
2023-01-12T17:43:34.986Z,-11.66
2023-01-12T17:48:40.499Z,-11.73
2023-01-12T17:53:46.778Z,-11.88
2023-01-12T17:58:53.353Z,-11.89
2023-01-12T18:04:00.493Z,-11.91
2023-01-12T18:09:06.148Z,-12.06
2023-01-12T18:14:12.880Z,-12.02
2023-01-12T18:19:18.667Z,-11.93
2023-01-12T18:24:24.044Z,-11.99
2023-01-12T18:29:28.406Z,-11.95
2023-01-12T18:34:34.344Z,-11.91
2023-01-12T18:39:41.952Z,-12.07
2023-01-12T18:44:49.063Z,-12.32
2023-01-12T18:49:59.096Z,-12.24
2023-01-12T18:55:06.271Z,-12.44
2023-01-12T19:00:18.776Z,-12.35
2023-01-12T19:05:36.452Z,-12.26
2023-01-12T19:10:42.099Z,-12.49
2023-01-12T19:16:07.698Z,-12.36
2023-01-12T19:21:33.399Z,-12.35
2023-01-12T19:26:58.398Z,-12.29
2023-01-12T19:32:04.248Z,-12.38
2023-01-12T19:37:09.966Z,-12.38
2023-01-12T19:42:35.235Z,-12.34
2023-01-12T19:47:41.927Z,-12.41
2023-01-12T19:52:47.831Z,-12.46
2023-01-12T19:57:54.540Z,-12.34
2023-01-12T20:03:00.081Z,-12.32
2023-01-12T20:08:05.909Z,-12.11
2023-01-12T20:13:13.697Z,-12.16
2023-01-12T20:18:19.504Z,-12.09
2023-01-12T20:23:24.821Z,-12.14
2023-01-12T20:28:29.119Z,-12.48
2023-01-12T20:33:35.761Z,-12.86
2023-01-12T20:38:42.390Z,-12.91
2023-01-12T20:43:48.390Z,-12.77
2023-01-12T20:48:53.705Z,-12.85
2023-01-12T20:54:02.562Z,-13.16
2023-01-12T20:59:08.380Z,-13.21
2023-01-12T21:04:14.064Z,-13.27
2023-01-12T21:09:19.307Z,-13.60
2023-01-12T21:14:24.890Z,-13.67
2023-01-12T21:19:30.636Z,-13.79
2023-01-12T21:24:36.374Z,-13.87
2023-01-12T21:29:42.027Z,-14.12
2023-01-12T21:34:49.574Z,-13.96
2023-01-12T21:39:55.445Z,-13.86
2023-01-12T21:45:00.689Z,-13.77
2023-01-12T21:50:06.232Z,-13.93
2023-01-12T21:55:14.003Z,-13.64
2023-01-12T22:00:19.577Z,-13.62
2023-01-12T22:05:25.588Z,-13.17
2023-01-12T22:10:31.986Z,-12.99
2023-01-12T22:15:37.747Z,-13.37
2023-01-12T22:20:44.381Z,-13.39
2023-01-12T22:25:50.030Z,-13.47
2023-01-12T22:30:55.746Z,-13.30
2023-01-12T22:36:04.758Z,-13.09
2023-01-12T22:41:12.870Z,-13.04
2023-01-12T22:46:22.779Z,-12.67
2023-01-12T22:51:30.273Z,-12.50
2023-01-12T22:56:36.565Z,-13.08
2023-01-12T23:01:42.137Z,-12.09
2023-01-12T23:06:47.539Z,-12.35
2023-01-12T23:11:53.196Z,-12.46
2023-01-12T23:16:59.107Z,-12.91
2023-01-12T23:22:04.640Z,-12.55
2023-01-12T23:27:10.439Z,-12.41
2023-01-12T23:32:15.563Z,-12.43
2023-01-12T23:37:20.826Z,-12.56
2023-01-12T23:42:26.669Z,-12.45
2023-01-12T23:47:33.394Z,-12.50
2023-01-12T23:52:39.744Z,-12.61
2023-01-12T23:57:48.809Z,-13.23
